Terminal Aerodrome Forecast
Issued by NWS

Home | Current Version | Previous Version | Text Only | Print | Product List | Glossary On
Versions: 1 2 3 4 5 6 7 8 9 10 11 12 13 14
000
FTUS43 KMPX 041733
TAFRWF
TAF
KRWF 041733Z 0418/0518 04010KT P6SM FEW300
     FM050000 07006KT P6SM SCT150
     FM050800 09007KT P6SM SCT050 BKN100
     FM051400 10012KT P6SM VCSH SCT030 OVC050=

USA.gov is the U.S. government's official web portal to all federal, state and local government web resources and services.